createdAt,value
2019-05-01T00:00:20.354Z,23.00
2019-05-01T00:02:50.251Z,23.38
2019-05-01T00:05:23.165Z,25.17
2019-05-01T00:07:51.456Z,23.98
2019-05-01T00:10:20.057Z,21.00
2019-05-01T00:12:48.297Z,22.67
2019-05-01T00:15:16.567Z,25.48
2019-05-01T00:17:44.828Z,23.30
2019-05-01T00:20:13.542Z,23.75
2019-05-01T00:22:41.792Z,22.40
2019-05-01T00:25:10.040Z,22.22
2019-05-01T00:27:38.294Z,23.38
2019-05-01T00:30:08.270Z,24.18
2019-05-01T00:32:36.501Z,23.05
2019-05-01T00:35:06.233Z,24.32
2019-05-01T00:37:34.484Z,23.22
2019-05-01T00:40:02.993Z,22.73
2019-05-01T00:42:31.277Z,21.95
2019-05-01T00:44:59.544Z,23.02
2019-05-01T00:47:27.815Z,20.95
2019-05-01T00:49:56.134Z,22.65
2019-05-01T00:52:24.367Z,23.10
2019-05-01T00:54:54.233Z,24.47
2019-05-01T00:57:24.135Z,21.57
2019-05-01T01:00:00.040Z,22.00
2019-05-01T01:02:32.652Z,23.60
2019-05-01T01:05:00.898Z,20.75
2019-05-01T01:07:29.150Z,22.37
2019-05-01T01:09:57.401Z,22.82
2019-05-01T01:12:25.663Z,24.35
2019-05-01T01:14:53.904Z,20.17
2019-05-01T01:17:22.157Z,20.52
2019-05-01T01:19:50.412Z,19.52
2019-05-01T01:25:47.651Z,19.30
2019-05-01T01:28:15.896Z,22.13
2019-05-01T01:30:55.578Z,21.95
2019-05-01T01:33:14.133Z,22.67
2019-05-01T01:35:42.447Z,22.32
2019-05-01T01:38:10.720Z,22.05
2019-05-01T01:40:39.044Z,22.58
2019-05-01T01:43:25.234Z,22.02
2019-05-01T01:45:55.139Z,21.77
2019-05-01T01:48:23.365Z,21.93
2019-05-01T01:50:51.629Z,21.75
2019-05-01T01:53:20.344Z,20.57
2019-05-01T01:55:48.605Z,22.67
2019-05-01T01:58:16.954Z,19.50
2019-05-01T02:01:08.460Z,22.87
2019-05-01T02:03:27.342Z,21.68
2019-05-01T02:05:56.751Z,21.07
2019-05-01T02:08:25.049Z,22.32
2019-05-01T02:10:53.325Z,21.77
2019-05-01T02:13:21.678Z,20.27
2019-05-01T02:15:49.931Z,19.98
2019-05-01T02:18:18.181Z,19.10
2019-05-01T02:20:46.455Z,21.12
2019-05-01T02:23:14.693Z,20.12
2019-05-01T02:25:43.923Z,19.40
2019-05-01T02:28:29.161Z,22.20
2019-05-01T02:31:27.414Z,21.00
2019-05-01T02:33:47.123Z,21.90
2019-05-01T02:36:15.942Z,20.57
2019-05-01T02:38:44.506Z,19.85
2019-05-01T02:41:12.755Z,19.87
2019-05-01T02:43:41.810Z,19.42
2019-05-01T02:46:10.704Z,19.12
2019-05-01T02:48:42.213Z,18.60
2019-05-01T02:51:10.475Z,18.67
2019-05-01T02:53:38.723Z,17.80
2019-05-01T02:56:20.771Z,20.45
2019-05-01T02:58:49.564Z,20.68
2019-05-01T03:01:17.811Z,19.80
2019-05-01T03:03:46.132Z,19.62
2019-05-01T03:06:14.396Z,18.98
2019-05-01T03:08:42.994Z,16.73
2019-05-01T03:11:11.271Z,20.92
2019-05-01T03:13:39.499Z,18.35
2019-05-01T03:16:07.774Z,18.35
2019-05-01T03:18:37.720Z,19.87
2019-05-01T03:21:07.655Z,20.08
2019-05-01T03:23:43.122Z,17.65
2019-05-01T03:26:11.401Z,18.32
2019-05-01T03:28:39.712Z,19.55
2019-05-01T03:31:07.963Z,18.65
2019-05-01T03:33:36.223Z,18.60
2019-05-01T03:36:04.525Z,19.80
2019-05-01T03:38:32.782Z,17.42
2019-05-01T03:41:01.501Z,19.70
2019-05-01T03:43:29.756Z,18.75
2019-05-01T03:45:58.040Z,17.73
2019-05-01T03:48:26.349Z,16.73
2019-05-01T03:50:54.588Z,17.60
2019-05-01T03:53:23.481Z,18.87
2019-05-01T03:55:51.725Z,18.15
2019-05-01T03:58:19.981Z,17.32
2019-05-01T04:00:49.863Z,20.15
2019-05-01T04:03:19.834Z,17.90
2019-05-01T04:05:48.078Z,17.50
2019-05-01T04:08:17.197Z,18.52
2019-05-01T04:10:45.993Z,18.67
2019-05-01T04:13:14.392Z,17.92
2019-05-01T04:15:42.890Z,18.10
2019-05-01T04:18:11.144Z,19.80
2019-05-01T04:20:39.499Z,17.73
2019-05-01T04:23:07.799Z,18.23
2019-05-01T04:25:36.100Z,18.40
2019-05-01T04:28:22.496Z,18.67
2019-05-01T04:31:07.671Z,19.45
2019-05-01T04:33:37.560Z,18.87
2019-05-01T04:36:13.199Z,19.65
2019-05-01T04:38:41.437Z,14.85
2019-05-01T04:41:09.697Z,20.50
2019-05-01T04:43:37.975Z,16.93
2019-05-01T04:46:06.275Z,18.30
2019-05-01T04:48:34.533Z,21.10
2019-05-01T04:51:02.789Z,17.73
2019-05-01T04:53:31.051Z,16.70
2019-05-01T04:55:59.300Z,19.40
2019-05-01T04:58:27.547Z,17.02
2019-05-01T05:00:55.820Z,19.25
2019-05-01T05:03:25.729Z,17.87
2019-05-01T05:05:53.949Z,19.10
2019-05-01T05:08:22.246Z,19.62
2019-05-01T05:10:52.113Z,18.98
2019-05-01T05:13:38.592Z,19.48
2019-05-01T05:16:24.980Z,17.77
2019-05-01T05:18:53.242Z,18.52
2019-05-01T05:21:21.492Z,19.35
2019-05-01T05:23:49.809Z,19.15
2019-05-01T05:26:18.108Z,21.55
2019-05-01T05:28:46.361Z,20.12
2019-05-01T05:31:14.620Z,17.50
2019-05-01T05:33:42.877Z,21.23
2019-05-01T05:36:11.184Z,24.23
2019-05-01T05:38:47.379Z,20.00
2019-05-01T05:41:15.629Z,21.10
2019-05-01T05:43:44.053Z,17.85
2019-05-01T05:46:12.595Z,22.15
2019-05-01T05:48:41.003Z,20.35
2019-05-01T05:51:18.307Z,21.70
2019-05-01T05:54:07.443Z,20.90
2019-05-01T05:56:43.226Z,18.80
2019-05-01T05:59:13.207Z,21.48
2019-05-01T06:01:55.028Z,21.33
2019-05-01T06:04:37.278Z,21.00
2019-05-01T06:07:07.176Z,21.17
2019-05-01T06:09:37.093Z,22.45
2019-05-01T06:12:10.183Z,22.48
2019-05-01T06:17:35.116Z,19.80
2019-05-01T06:20:10.489Z,19.57
2019-05-01T06:22:56.777Z,21.95
2019-05-01T06:25:29.563Z,21.05
2019-05-01T06:27:57.824Z,20.92
2019-05-01T06:30:26.223Z,22.65
2019-05-01T06:32:54.460Z,20.25
2019-05-01T06:35:22.716Z,23.22
2019-05-01T06:38:05.549Z,23.45
2019-05-01T06:40:35.571Z,22.40
2019-05-01T06:43:03.900Z,21.45
2019-05-01T06:45:32.380Z,22.75
2019-05-01T06:48:05.233Z,24.23
2019-05-01T06:50:37.033Z,21.30
2019-05-01T06:53:06.433Z,21.87
2019-05-01T06:55:35.088Z,21.50
2019-05-01T06:58:03.325Z,19.85
2019-05-01T07:00:31.656Z,23.47
2019-05-01T07:02:59.885Z,24.65
2019-05-01T07:05:28.162Z,21.77
2019-05-01T07:07:56.419Z,20.80
2019-05-01T07:10:31.705Z,20.30
2019-05-01T07:12:54.993Z,21.50
2019-05-01T07:15:26.774Z,20.37
2019-05-01T07:17:53.252Z,19.35
2019-05-01T07:20:25.491Z,20.70
2019-05-01T07:22:53.107Z,22.55
2019-05-01T07:25:21.386Z,19.77
2019-05-01T07:27:49.621Z,22.82
2019-05-01T07:30:20.875Z,20.10
2019-05-01T07:32:49.353Z,20.12
2019-05-01T07:35:17.620Z,21.85
2019-05-01T07:37:45.861Z,21.87
2019-05-01T07:40:14.127Z,23.25
2019-05-01T07:42:48.238Z,20.15
2019-05-01T07:45:26.485Z,20.45
2019-05-01T07:47:55.915Z,18.48
2019-05-01T07:50:31.364Z,22.58
2019-05-01T07:52:54.163Z,21.97
2019-05-01T07:55:37.504Z,20.25
2019-05-01T08:00:48.519Z,21.67
2019-05-01T08:03:16.775Z,18.80
2019-05-01T08:05:45.423Z,27.17
2019-05-01T08:08:14.951Z,21.77
2019-05-01T08:10:43.198Z,20.15
2019-05-01T08:13:11.457Z,23.70
2019-05-01T08:15:39.727Z,19.37
2019-05-01T08:18:27.869Z,18.52
2019-05-01T08:20:57.460Z,26.37
2019-05-01T08:23:25.724Z,23.95
2019-05-01T08:25:53.995Z,22.82
2019-05-01T08:28:40.185Z,18.30
2019-05-01T08:31:16.035Z,19.80
2019-05-01T08:33:49.952Z,19.92
2019-05-01T08:36:16.070Z,29.37
2019-05-01T08:38:44.371Z,25.50
2019-05-01T08:41:12.633Z,20.60
2019-05-01T08:43:41.274Z,17.25
2019-05-01T08:46:27.837Z,19.10
2019-05-01T08:49:00.710Z,22.20
2019-05-01T08:51:30.166Z,21.75
2019-05-01T08:53:59.574Z,18.23
2019-05-01T08:56:28.046Z,18.27
2019-05-01T08:58:56.291Z,17.40
2019-05-01T09:01:24.621Z,19.60
2019-05-01T09:03:54.154Z,17.05
2019-05-01T09:06:34.282Z,15.58
2019-05-01T09:08:53.001Z,17.73
2019-05-01T09:11:21.322Z,18.10
2019-05-01T09:13:49.723Z,20.05
2019-05-01T09:16:19.282Z,15.90
2019-05-01T09:18:47.729Z,17.57
2019-05-01T09:21:16.119Z,17.95
2019-05-01T09:23:46.252Z,16.17
2019-05-01T09:26:16.393Z,15.35
2019-05-01T09:28:46.401Z,15.58
2019-05-01T09:31:16.342Z,17.75
2019-05-01T09:33:44.697Z,14.15
2019-05-01T09:36:13.087Z,19.00
2019-05-01T09:38:41.422Z,21.00
2019-05-01T09:41:09.789Z,18.52
2019-05-01T09:43:38.176Z,18.42
2019-05-01T09:46:06.439Z,14.95
2019-05-01T09:48:34.685Z,13.80
2019-05-01T09:51:07.672Z,16.75
2019-05-01T09:53:37.548Z,14.35
2019-05-01T09:56:08.840Z,18.90
2019-05-01T09:58:37.415Z,16.67
2019-05-01T10:01:05.727Z,16.35
2019-05-01T10:03:34.021Z,14.60
2019-05-01T10:06:02.297Z,16.30
2019-05-01T10:08:34.662Z,16.37
2019-05-01T10:11:05.242Z,18.85
2019-05-01T10:13:30.499Z,16.70
2019-05-01T10:15:58.799Z,15.43
2019-05-01T10:18:27.055Z,14.45
2019-05-01T10:20:55.315Z,15.40
2019-05-01T10:23:23.589Z,14.50
2019-05-01T10:25:53.464Z,14.98
2019-05-01T10:28:38.599Z,17.37
2019-05-01T10:31:12.027Z,19.10
2019-05-01T10:33:43.041Z,16.87
2019-05-01T10:36:18.634Z,14.73
2019-05-01T10:38:45.223Z,14.75
2019-05-01T10:41:12.880Z,15.60
2019-05-01T10:43:41.150Z,12.50
2019-05-01T10:46:09.382Z,12.90
2019-05-01T10:48:37.671Z,13.80
2019-05-01T10:51:05.929Z,13.35
2019-05-01T10:53:34.173Z,15.03
2019-05-01T10:56:02.442Z,13.85
2019-05-01T10:58:30.697Z,13.62
2019-05-01T11:01:00.602Z,16.02
2019-05-01T11:03:28.856Z,15.53
2019-05-01T11:05:57.104Z,14.63
2019-05-01T11:08:25.384Z,14.15
2019-05-01T11:10:53.633Z,13.80
2019-05-01T11:13:21.924Z,14.28
2019-05-01T11:15:50.193Z,12.93
2019-05-01T11:18:18.425Z,15.10
2019-05-01T11:20:46.456Z,13.18
2019-05-01T11:23:14.455Z,12.40
2019-05-01T11:25:44.648Z,14.45
2019-05-01T11:28:12.446Z,12.93
2019-05-01T11:30:40.687Z,17.30
2019-05-01T11:33:10.594Z,13.15
2019-05-01T11:35:40.500Z,10.90
2019-05-01T11:38:19.123Z,12.43
2019-05-01T11:40:49.190Z,13.90
2019-05-01T11:43:17.429Z,12.25
2019-05-01T11:45:45.739Z,11.57
2019-05-01T11:48:13.995Z,13.45
2019-05-01T11:50:41.997Z,15.53
2019-05-01T11:53:10.003Z,13.40
2019-05-01T11:55:38.054Z,14.38
2019-05-01T11:58:06.066Z,13.95
2019-05-01T12:00:34.071Z,14.63
2019-05-01T12:03:02.105Z,12.40
2019-05-01T12:05:30.118Z,16.25
2019-05-01T12:07:58.378Z,15.45
2019-05-01T12:10:26.634Z,14.40
2019-05-01T12:12:54.886Z,14.93
2019-05-01T12:15:23.141Z,13.65
2019-05-01T12:17:51.405Z,13.78
2019-05-01T12:20:20.021Z,12.73
2019-05-01T12:22:51.255Z,12.93
2019-05-01T12:25:18.264Z,13.40
2019-05-01T12:27:46.514Z,11.38
2019-05-01T12:30:16.145Z,12.37
2019-05-01T12:32:44.410Z,13.85
2019-05-01T12:35:12.790Z,13.53
2019-05-01T12:37:44.215Z,12.73
2019-05-01T12:40:14.954Z,13.48
2019-05-01T12:42:43.225Z,12.80
2019-05-01T12:45:11.534Z,10.68
2019-05-01T12:47:47.460Z,10.50
2019-05-01T12:50:15.725Z,10.93
2019-05-01T12:52:45.685Z,11.57
2019-05-01T12:55:32.110Z,11.03
2019-05-01T12:58:00.327Z,8.73
2019-05-01T13:00:43.071Z,11.25
2019-05-01T13:03:11.591Z,8.65
2019-05-01T13:05:39.950Z,13.18
2019-05-01T13:08:09.058Z,11.22
2019-05-01T13:10:37.301Z,10.35
2019-05-01T13:13:05.589Z,12.03
2019-05-01T13:15:33.828Z,8.88
2019-05-01T13:18:02.076Z,13.35
2019-05-01T13:20:30.360Z,10.82
2019-05-01T13:22:58.669Z,11.65
2019-05-01T13:25:26.926Z,11.18
2019-05-01T13:28:15.282Z,9.80
2019-05-01T13:30:45.159Z,11.08
2019-05-01T13:33:13.402Z,12.88
2019-05-01T13:35:41.668Z,12.47
2019-05-01T13:38:09.916Z,12.05
2019-05-01T13:40:38.173Z,11.93
2019-05-01T13:43:06.437Z,12.40
2019-05-01T13:45:34.687Z,11.73
2019-05-01T13:48:02.952Z,10.93
2019-05-01T13:50:31.271Z,16.15
2019-05-01T13:52:59.525Z,11.08
2019-05-01T13:55:28.059Z,16.45
2019-05-01T13:57:56.391Z,14.65
2019-05-01T14:00:26.032Z,11.95
2019-05-01T14:02:54.272Z,11.63
2019-05-01T14:05:22.523Z,10.65
2019-05-01T14:07:50.779Z,14.13
2019-05-01T14:10:19.190Z,12.30
2019-05-01T14:12:47.439Z,11.25
2019-05-01T14:15:15.690Z,12.90
2019-05-01T14:17:43.942Z,11.40
2019-05-01T14:20:30.100Z,16.25
2019-05-01T14:23:00.022Z,13.10
2019-05-01T14:25:29.900Z,11.65
2019-05-01T14:27:58.178Z,12.18
2019-05-01T14:30:26.483Z,11.85
2019-05-01T14:32:54.781Z,12.55
2019-05-01T14:35:23.038Z,15.15
2019-05-01T14:37:51.279Z,12.93
2019-05-01T14:40:19.636Z,15.65
2019-05-01T14:42:47.881Z,11.68
2019-05-01T14:45:16.519Z,21.45
2019-05-01T14:47:44.760Z,14.28
2019-05-01T14:50:13.021Z,20.77
2019-05-01T14:52:41.283Z,17.02
2019-05-01T14:55:09.613Z,16.27
2019-05-01T14:57:37.880Z,14.63
2019-05-01T15:00:07.745Z,18.60
2019-05-01T15:02:36.002Z,17.55
2019-05-01T15:05:06.104Z,17.02
2019-05-01T15:07:43.343Z,21.37
2019-05-01T15:10:05.373Z,22.25
2019-05-01T15:12:33.597Z,18.20
2019-05-01T15:15:12.084Z,13.32
2019-05-01T15:17:44.955Z,12.88
2019-05-01T15:22:40.791Z,14.03
2019-05-01T15:25:09.109Z,16.35
2019-05-01T15:27:37.372Z,14.20
2019-05-01T15:30:06.501Z,14.53
2019-05-01T15:32:34.775Z,10.20
2019-05-01T15:35:03.292Z,12.95
2019-05-01T15:37:31.546Z,13.45
2019-05-01T15:40:01.479Z,13.32
2019-05-01T15:42:34.347Z,12.30
2019-05-01T15:47:30.142Z,14.23
2019-05-01T15:49:58.453Z,13.58
2019-05-01T15:52:26.708Z,14.70
2019-05-01T15:54:54.968Z,18.25
2019-05-01T15:57:23.229Z,15.38
2019-05-01T15:59:51.497Z,13.80
2019-05-01T16:02:19.749Z,15.40
2019-05-01T16:04:48.072Z,13.28
2019-05-01T16:07:16.343Z,13.90
2019-05-01T16:09:44.593Z,14.33
2019-05-01T16:12:14.496Z,11.30
2019-05-01T16:14:43.189Z,11.45
2019-05-01T16:17:11.473Z,13.68
2019-05-01T16:19:39.730Z,17.52
2019-05-01T16:22:07.988Z,15.08
2019-05-01T16:24:36.236Z,12.65
2019-05-01T16:27:04.865Z,14.15
2019-05-01T16:29:33.126Z,14.15
2019-05-01T16:32:01.383Z,13.80
2019-05-01T16:34:29.622Z,14.65
2019-05-01T16:36:57.887Z,15.23
2019-05-01T16:39:44.377Z,13.00
2019-05-01T16:42:12.683Z,13.48
2019-05-01T16:44:40.961Z,15.45
2019-05-01T16:47:09.289Z,13.85
2019-05-01T16:49:37.537Z,14.10
2019-05-01T16:52:05.781Z,12.80
2019-05-01T16:54:34.035Z,15.43
2019-05-01T16:57:02.303Z,13.53
2019-05-01T16:59:30.561Z,13.68
2019-05-01T17:02:06.482Z,12.47
2019-05-01T17:04:45.401Z,12.43
2019-05-01T17:07:31.614Z,12.37
2019-05-01T17:10:10.671Z,12.05
2019-05-01T17:12:43.419Z,12.93
2019-05-01T17:15:11.737Z,13.20
2019-05-01T17:17:39.976Z,13.20
2019-05-01T17:20:08.236Z,15.03
2019-05-01T17:22:36.518Z,11.83
2019-05-01T17:25:07.488Z,12.23
2019-05-01T17:27:35.746Z,11.50
2019-05-01T17:30:09.649Z,12.28
2019-05-01T17:32:39.847Z,10.75
2019-05-01T17:35:08.109Z,17.37
2019-05-01T17:37:36.445Z,31.85
2019-05-01T17:40:06.321Z,28.47
2019-05-01T17:42:37.680Z,19.45
2019-05-01T17:45:06.495Z,16.17
2019-05-01T17:47:34.766Z,15.70
2019-05-01T17:50:03.100Z,16.97
2019-05-01T17:52:31.376Z,12.33
2019-05-01T17:55:01.344Z,12.25
2019-05-01T17:57:29.749Z,13.45
2019-05-01T17:59:59.654Z,11.80
2019-05-01T18:02:35.574Z,11.68
2019-05-01T18:05:05.465Z,12.70
2019-05-01T18:07:34.985Z,13.45
2019-05-01T18:10:05.860Z,12.35
2019-05-01T18:12:34.103Z,13.60
2019-05-01T18:15:02.426Z,14.33
2019-05-01T18:17:30.669Z,17.05
2019-05-01T18:19:58.960Z,14.90
2019-05-01T18:22:37.067Z,12.33
2019-05-01T18:25:10.351Z,21.82
2019-05-01T18:27:49.947Z,24.30
2019-05-01T18:30:20.476Z,18.77
2019-05-01T18:32:51.960Z,16.45
2019-05-01T18:35:19.205Z,13.70
2019-05-01T18:38:01.071Z,15.03
2019-05-01T18:40:33.732Z,14.35
2019-05-01T18:43:00.939Z,13.83
2019-05-01T18:45:49.918Z,14.03
2019-05-01T18:48:18.255Z,13.10
2019-05-01T18:50:49.353Z,14.00
2019-05-01T18:53:18.714Z,12.20
2019-05-01T18:55:46.696Z,16.45
2019-05-01T18:58:14.970Z,16.15
2019-05-01T19:00:43.913Z,14.13
2019-05-01T19:03:12.177Z,14.70
2019-05-01T19:05:43.110Z,18.10
2019-05-01T19:08:10.457Z,13.70
2019-05-01T19:10:38.779Z,15.88
2019-05-01T19:13:07.889Z,15.20
2019-05-01T19:15:36.131Z,15.85
2019-05-01T19:18:04.397Z,13.80
2019-05-01T19:20:32.673Z,22.32
2019-05-01T19:23:03.966Z,23.87
2019-05-01T19:25:32.242Z,17.27
2019-05-01T19:28:01.735Z,16.20
2019-05-01T19:30:29.991Z,18.37
2019-05-01T19:32:58.294Z,15.60
2019-05-01T19:35:29.599Z,15.65
2019-05-01T19:37:57.441Z,17.12
2019-05-01T19:40:30.761Z,16.00
2019-05-01T19:42:58.131Z,16.12
2019-05-01T19:45:26.556Z,16.12
2019-05-01T19:47:54.836Z,14.85
2019-05-01T19:50:23.097Z,19.15
2019-05-01T19:52:51.391Z,16.77
2019-05-01T19:55:19.697Z,14.95
2019-05-01T19:57:48.057Z,14.55
2019-05-01T20:00:20.807Z,16.77
2019-05-01T20:02:54.330Z,19.10
2019-05-01T20:08:08.846Z,20.27
2019-05-01T20:10:37.188Z,16.67
2019-05-01T20:13:07.044Z,19.55
2019-05-01T20:15:35.535Z,19.98
2019-05-01T20:18:03.981Z,21.75
2019-05-01T20:20:32.433Z,20.50
2019-05-01T20:23:00.786Z,30.82
2019-05-01T20:25:29.183Z,33.90
2019-05-01T20:27:57.549Z,24.23
2019-05-01T20:30:25.982Z,20.90
2019-05-01T20:32:58.127Z,18.48
2019-05-01T20:35:28.416Z,21.42
2019-05-01T20:37:54.408Z,17.42
2019-05-01T20:40:22.799Z,16.17
2019-05-01T20:42:51.055Z,18.67
2019-05-01T20:45:19.686Z,21.70
2019-05-01T20:47:48.382Z,17.23
2019-05-01T20:50:16.860Z,15.45
2019-05-01T20:52:45.213Z,16.25
2019-05-01T20:55:13.552Z,17.30
2019-05-01T20:57:43.538Z,26.52
2019-05-01T21:00:16.507Z,23.57
2019-05-01T21:02:43.110Z,29.12
2019-05-01T21:05:17.009Z,20.43
2019-05-01T21:10:24.509Z,15.95
2019-05-01T21:12:44.631Z,17.40
2019-05-01T21:15:12.940Z,17.50
2019-05-01T21:17:44.166Z,18.00
2019-05-01T21:20:13.355Z,15.88
2019-05-01T21:22:43.409Z,16.05
2019-05-01T21:25:11.389Z,16.52
2019-05-01T21:27:39.681Z,17.57
2019-05-01T21:30:08.654Z,18.32
2019-05-01T21:32:36.922Z,18.67
2019-05-01T21:35:05.459Z,16.82
2019-05-01T21:37:33.694Z,19.98
2019-05-01T21:40:02.712Z,19.50
2019-05-01T21:42:32.649Z,17.10
2019-05-01T21:45:01.021Z,17.57
2019-05-01T21:47:29.281Z,14.98
2019-05-01T21:49:57.548Z,17.45
2019-05-01T21:52:26.990Z,15.53
2019-05-01T21:54:57.017Z,14.80
2019-05-01T21:57:29.558Z,15.70
2019-05-01T21:59:55.514Z,17.17
2019-05-01T22:02:23.773Z,14.75
2019-05-01T22:04:51.997Z,14.90
2019-05-01T22:07:23.877Z,14.65
2019-05-01T22:09:51.652Z,13.72
2019-05-01T22:12:20.021Z,13.48
2019-05-01T22:14:49.941Z,13.70
2019-05-01T22:17:19.821Z,11.18
2019-05-01T22:19:48.090Z,11.55
2019-05-01T22:22:38.848Z,11.03
2019-05-01T22:25:11.245Z,11.70
2019-05-01T22:27:41.147Z,12.95
2019-05-01T22:30:12.705Z,13.20
2019-05-01T22:32:42.781Z,11.78
2019-05-01T22:35:15.374Z,11.43
2019-05-01T22:37:43.631Z,9.43
2019-05-01T22:40:13.502Z,12.05
2019-05-01T22:42:41.771Z,12.15
2019-05-01T22:45:16.073Z,23.30
2019-05-01T22:47:46.079Z,13.48
2019-05-01T22:50:14.307Z,9.28
2019-05-01T22:52:42.525Z,9.88
2019-05-01T22:55:12.270Z,10.78
2019-05-01T22:57:40.508Z,10.38
2019-05-01T23:00:12.052Z,12.70
2019-05-01T23:02:41.897Z,12.10
2019-05-01T23:05:10.158Z,10.20
2019-05-01T23:07:38.401Z,11.38
2019-05-01T23:10:07.295Z,9.40
2019-05-01T23:12:35.539Z,9.18
2019-05-01T23:15:08.284Z,9.55
2019-05-01T23:17:39.648Z,10.75
2019-05-01T23:20:09.349Z,9.78
2019-05-01T23:22:37.668Z,9.15
2019-05-01T23:25:06.293Z,10.23
2019-05-01T23:27:34.625Z,10.93
2019-05-01T23:30:04.284Z,10.80
2019-05-01T23:32:32.518Z,9.18
2019-05-01T23:35:00.776Z,11.70
2019-05-01T23:37:29.045Z,12.13
2019-05-01T23:39:57.306Z,8.73
2019-05-01T23:42:25.551Z,7.15
2019-05-01T23:44:53.812Z,10.75
2019-05-01T23:47:22.123Z,11.20
2019-05-01T23:49:52.494Z,9.60
2019-05-01T23:52:20.005Z,8.93
2019-05-01T23:54:47.999Z,11.70
2019-05-01T23:57:18.765Z,10.60
2019-05-01T23:59:45.721Z,9.33
